Accueil
METAR-TAF:

METAR-TAF

Aéroports :

Wallis, France

Aérodrome de Wallis Hihifo

latitude: 13-14S, longitude: 176-10W, altitude: 23 m

METAR: absent

Heure: 00:32 (12:32 UTC)

Prévision

Le bulletin a été fait il y a 1 heure et 32 minutes, à 11:00 UTC
Prévision valable du 23 à 12 UTC au 24 à 12 UTC
Vent 8 kt de nord-ouest
Visibilité 10 km ou plus
Nuages épars à une hauteur de 2000 ft
Temporairement
du 23 à 15 UTC au 24 à 03 UTC
Quelques nuages à une hauteur de 1800 ft, Cumulus congestus.
averses de pluie
Probabilité 40% :
Temporairement
du 23 à 18 UTC au 23 à 24 UTC
Visibilité: 2500 m
Nuages épars à une hauteur de 2000 ft, Cumulonimbus.
fortes averses de pluie

TAF: NLWW 231100Z 2312/2412 32008KT 9999 SCT020 TEMPO 2315/2403 SHRA FEW018TCU PROB40 TEMPO 2318/2324 2500 +SHRA SCT020CB

Observations et prévisions météorologiques de plus de 4000 aéroports (messages METAR et TAF).

Les stations disponibles sont représentées par des disques jaunes et rouges sur la carte.

Passer la souris dessus pour voir le nom de la station.

Cliquer dessus pour voir les observations et prévisions météorologiques.

Pour changer de carte: cliquez sur les boutons verts avec une croix noire pour zoomer, sur le bouton vert avec un tiret pour effectuer un zoom arrière, ou sur les flèches vertes pour les cartes adjacentes.


METAR-TAF: